createdAt,value
2019-01-14T00:01:31.441Z,8.80
2019-01-14T00:05:50.235Z,8.70
2019-01-14T00:10:08.920Z,8.60
2019-01-14T00:14:27.462Z,8.60
2019-01-14T00:18:45.623Z,8.60
2019-01-14T00:23:04.305Z,8.60
2019-01-14T00:27:22.443Z,8.60
2019-01-14T00:31:40.897Z,8.60
2019-01-14T00:35:59.093Z,8.50
2019-01-14T00:40:18.393Z,8.50
2019-01-14T00:44:36.445Z,8.50
2019-01-14T00:48:55.494Z,8.50
2019-01-14T00:53:13.718Z,8.50
2019-01-14T00:57:32.304Z,8.60
2019-01-14T01:01:50.637Z,8.50
2019-01-14T01:06:09.465Z,8.60
2019-01-14T01:10:28.176Z,8.50
2019-01-14T01:14:47.565Z,8.50
2019-01-14T01:19:06.018Z,8.50
2019-01-14T01:23:24.158Z,8.50
2019-01-14T01:27:43.840Z,8.50
2019-01-14T01:32:02.372Z,8.50
2019-01-14T01:36:20.421Z,8.50
2019-01-14T01:40:38.576Z,8.50
2019-01-14T01:44:57.076Z,8.40
2019-01-14T01:49:15.288Z,8.40
2019-01-14T01:53:33.525Z,8.40
2019-01-14T01:57:51.725Z,8.40
2019-01-14T02:02:09.951Z,8.40
2019-01-14T02:06:28.468Z,8.40
2019-01-14T02:10:46.905Z,8.40
2019-01-14T02:15:06.365Z,8.40
2019-01-14T02:19:24.370Z,8.40
2019-01-14T02:23:42.466Z,8.40
2019-01-14T02:28:00.903Z,8.40
2019-01-14T02:32:19.043Z,8.30
2019-01-14T02:36:37.178Z,8.30
2019-01-14T02:40:55.626Z,8.30
2019-01-14T02:45:14.154Z,8.30
2019-01-14T02:49:32.765Z,8.30
2019-01-14T02:53:50.824Z,8.30
2019-01-14T02:58:08.884Z,8.30
2019-01-14T03:02:27.151Z,8.30
2019-01-14T03:06:45.389Z,8.30
2019-01-14T03:11:03.488Z,8.30
2019-01-14T03:15:21.978Z,8.30
2019-01-14T03:19:40.117Z,8.30
2019-01-14T03:23:59.210Z,8.30
2019-01-14T03:28:17.697Z,8.30
2019-01-14T03:32:36.091Z,8.30
2019-01-14T03:36:55.990Z,8.30
2019-01-14T03:41:14.475Z,8.30
2019-01-14T03:45:32.653Z,8.30
2019-01-14T03:49:51.014Z,8.30
2019-01-14T03:54:09.905Z,8.30
2019-01-14T03:58:27.994Z,8.30
2019-01-14T04:02:46.775Z,8.30
2019-01-14T04:07:04.906Z,8.30
2019-01-14T04:11:23.030Z,8.30
2019-01-14T04:15:41.636Z,8.30
2019-01-14T04:19:59.808Z,8.30
2019-01-14T04:24:17.961Z,8.30
2019-01-14T04:28:36.531Z,8.30
2019-01-14T04:32:55.089Z,8.30
2019-01-14T04:37:13.172Z,8.30
2019-01-14T04:41:31.222Z,8.30
2019-01-14T04:45:49.639Z,8.30
2019-01-14T04:50:11.450Z,8.30
2019-01-14T04:54:29.844Z,8.30
2019-01-14T04:58:47.952Z,8.30
2019-01-14T05:03:06.435Z,8.30
2019-01-14T05:07:29.522Z,8.30
2019-01-14T05:11:44.631Z,8.30
2019-01-14T05:16:02.815Z,8.30
2019-01-14T05:20:27.992Z,8.30
2019-01-14T05:24:46.919Z,8.30
2019-01-14T05:29:05.377Z,8.30
2019-01-14T05:33:23.391Z,8.30
2019-01-14T05:37:42.792Z,8.30
2019-01-14T05:42:00.984Z,8.40
2019-01-14T05:46:19.549Z,8.40
2019-01-14T05:50:37.764Z,8.40
2019-01-14T05:54:56.360Z,8.40
2019-01-14T05:59:14.833Z,8.40
2019-01-14T06:03:33.291Z,8.40
2019-01-14T06:07:51.744Z,8.40
2019-01-14T06:12:09.907Z,8.40
2019-01-14T06:16:27.999Z,8.40
2019-01-14T06:20:46.514Z,8.40
2019-01-14T06:25:05.512Z,8.30
2019-01-14T06:29:23.927Z,8.30
2019-01-14T06:33:42.626Z,8.30
2019-01-14T06:38:00.695Z,8.30
2019-01-14T06:42:18.974Z,8.20
2019-01-14T06:46:37.523Z,8.20
2019-01-14T06:50:55.679Z,8.20
2019-01-14T06:55:14.042Z,8.10
2019-01-14T06:59:32.030Z,8.10
2019-01-14T07:03:50.167Z,8.10
2019-01-14T07:08:08.395Z,8.10
2019-01-14T07:12:26.576Z,8.10
2019-01-14T07:16:44.698Z,8.10
2019-01-14T07:21:03.157Z,8.10
2019-01-14T07:25:21.412Z,8.10
2019-01-14T07:29:39.461Z,8.10
2019-01-14T07:33:57.744Z,8.10
2019-01-14T07:38:15.906Z,8.10
2019-01-14T07:42:33.983Z,8.10
2019-01-14T07:46:52.182Z,8.10
2019-01-14T07:51:10.233Z,8.10
2019-01-14T07:55:28.669Z,8.10
2019-01-14T07:59:46.888Z,8.10
2019-01-14T08:04:05.105Z,8.10
2019-01-14T08:08:23.309Z,8.10
2019-01-14T08:12:41.416Z,8.10
2019-01-14T08:16:59.566Z,8.10
2019-01-14T08:21:17.718Z,8.10
2019-01-14T08:25:35.783Z,8.10
2019-01-14T08:29:53.859Z,8.10
2019-01-14T08:34:12.279Z,8.20
2019-01-14T08:38:30.435Z,8.20
2019-01-14T08:42:48.581Z,8.20
2019-01-14T08:47:06.738Z,8.10
2019-01-14T08:51:24.966Z,8.10
2019-01-14T08:55:43.665Z,8.20
2019-01-14T09:00:01.953Z,8.30
2019-01-14T09:04:23.413Z,8.40
2019-01-14T09:08:40.535Z,8.50
2019-01-14T09:12:59.037Z,8.50
2019-01-14T09:17:17.282Z,8.60
2019-01-14T09:21:35.464Z,8.70
2019-01-14T09:25:54.214Z,8.70
2019-01-14T09:30:17.608Z,8.80
2019-01-14T09:34:36.060Z,8.80
2019-01-14T09:38:54.938Z,8.80
2019-01-14T09:43:13.121Z,8.80
2019-01-14T09:47:31.218Z,8.80
2019-01-14T09:51:49.508Z,8.80
2019-01-14T09:56:07.994Z,8.90
2019-01-14T10:00:26.199Z,8.90
2019-01-14T10:04:44.370Z,8.90
2019-01-14T10:09:03.930Z,8.90
2019-01-14T10:13:22.194Z,8.90
2019-01-14T10:17:40.715Z,8.90
2019-01-14T10:21:59.147Z,8.90
2019-01-14T10:26:17.565Z,8.90
2019-01-14T10:30:35.865Z,8.80
2019-01-14T10:34:54.645Z,8.80
2019-01-14T10:39:12.819Z,8.80
2019-01-14T10:43:30.862Z,8.70
2019-01-14T10:47:49.121Z,8.80
2019-01-14T10:52:07.885Z,8.90
2019-01-14T10:56:27.036Z,8.80
2019-01-14T11:00:45.202Z,8.80
2019-01-14T11:05:03.331Z,8.80
2019-01-14T11:09:22.260Z,8.80
2019-01-14T11:13:40.567Z,8.80
2019-01-14T11:17:58.697Z,8.80
2019-01-14T11:22:17.298Z,8.70
2019-01-14T11:26:35.485Z,8.70
2019-01-14T11:30:54.134Z,8.70
2019-01-14T11:35:12.680Z,8.70
2019-01-14T11:39:30.830Z,8.80
2019-01-14T11:43:49.196Z,8.90
2019-01-14T11:48:08.167Z,8.90
2019-01-14T11:52:26.700Z,8.90
2019-01-14T11:56:45.085Z,9.00
2019-01-14T12:01:03.155Z,9.00
2019-01-14T12:05:22.461Z,9.00
2019-01-14T12:09:40.717Z,9.00
2019-01-14T12:13:59.083Z,9.00
2019-01-14T12:18:17.283Z,9.10
2019-01-14T12:22:35.614Z,9.10
2019-01-14T12:26:54.218Z,9.10
2019-01-14T12:31:13.954Z,9.10
2019-01-14T12:35:33.730Z,9.10
2019-01-14T12:39:52.091Z,9.20
2019-01-14T12:44:10.535Z,9.30
2019-01-14T12:48:31.703Z,9.30
2019-01-14T12:52:50.065Z,9.40
2019-01-14T12:57:08.278Z,9.40
2019-01-14T13:01:27.459Z,9.30
2019-01-14T13:05:45.531Z,9.30
2019-01-14T13:10:06.163Z,9.20
2019-01-14T13:14:24.613Z,9.20
2019-01-14T13:18:43.051Z,9.20
2019-01-14T13:23:01.384Z,9.20
2019-01-14T13:27:20.204Z,8.90
2019-01-14T13:31:38.670Z,8.60
2019-01-14T13:35:57.243Z,8.20
2019-01-14T13:40:16.062Z,7.90
2019-01-14T13:44:36.139Z,7.70
2019-01-14T13:48:54.246Z,7.50
2019-01-14T13:53:12.551Z,7.30
2019-01-14T13:57:31.497Z,7.10
2019-01-14T14:01:50.838Z,7.00
2019-01-14T14:06:09.675Z,6.90
2019-01-14T14:10:33.293Z,6.80
2019-01-14T14:14:51.565Z,6.70
2019-01-14T14:19:11.788Z,6.60
2019-01-14T14:23:31.684Z,6.50
2019-01-14T14:27:51.622Z,6.50
2019-01-14T14:32:20.800Z,6.40
2019-01-14T14:36:40.079Z,6.30
2019-01-14T14:41:00.271Z,6.30
2019-01-14T14:45:19.280Z,6.20
2019-01-14T14:49:39.260Z,6.20
2019-01-14T14:53:59.553Z,6.20
2019-01-14T14:58:18.528Z,6.20
2019-01-14T15:02:36.808Z,6.20
2019-01-14T15:06:55.218Z,6.20
2019-01-14T15:11:14.490Z,6.20
2019-01-14T15:15:33.556Z,6.30
2019-01-14T15:19:51.644Z,6.30
2019-01-14T15:24:14.634Z,6.30
2019-01-14T15:28:36.469Z,6.30
2019-01-14T15:32:54.575Z,6.30
2019-01-14T15:37:13.116Z,6.30
2019-01-14T15:41:32.540Z,6.30
2019-01-14T15:45:51.397Z,6.20
2019-01-14T15:50:10.946Z,6.20
2019-01-14T15:54:30.858Z,6.10
2019-01-14T15:58:49.924Z,6.00
2019-01-14T16:03:09.786Z,5.90
2019-01-14T16:07:27.930Z,5.90
2019-01-14T16:11:46.252Z,5.80
2019-01-14T16:16:05.500Z,5.80
2019-01-14T16:20:29.585Z,5.80
2019-01-14T16:24:47.992Z,5.80
2019-01-14T16:29:06.246Z,5.90
2019-01-14T16:33:24.443Z,5.90
2019-01-14T16:37:44.447Z,5.90
2019-01-14T16:42:03.571Z,5.90
2019-01-14T16:46:21.896Z,5.90
2019-01-14T16:50:42.170Z,5.80
2019-01-14T16:55:00.379Z,5.80
2019-01-14T16:59:18.953Z,5.80
2019-01-14T17:03:37.717Z,5.80
2019-01-14T17:07:56.115Z,5.80
2019-01-14T17:12:14.100Z,5.90
2019-01-14T17:16:35.187Z,5.90
2019-01-14T17:20:53.212Z,5.90
2019-01-14T17:25:15.030Z,6.00
2019-01-14T17:29:34.511Z,6.00
2019-01-14T17:33:53.291Z,6.00
2019-01-14T17:38:11.999Z,6.10
2019-01-14T17:42:31.945Z,6.10
2019-01-14T17:46:50.187Z,6.20
2019-01-14T17:51:10.527Z,6.20
2019-01-14T17:55:29.986Z,6.20
2019-01-14T17:59:48.099Z,6.30
2019-01-14T18:04:07.008Z,6.30
2019-01-14T18:08:25.153Z,6.30
2019-01-14T18:12:43.284Z,6.30
2019-01-14T18:17:01.485Z,6.40
2019-01-14T18:21:19.637Z,6.40
2019-01-14T18:25:38.493Z,6.40
2019-01-14T18:29:56.695Z,6.40
2019-01-14T18:34:15.215Z,6.40
2019-01-14T18:38:33.370Z,6.40
2019-01-14T18:42:51.712Z,6.40
2019-01-14T18:47:10.026Z,6.40
2019-01-14T18:51:32.612Z,6.30
2019-01-14T18:55:53.243Z,6.20
2019-01-14T19:00:22.814Z,6.20
2019-01-14T19:04:41.625Z,6.10
2019-01-14T19:09:00.767Z,6.00
2019-01-14T19:13:19.866Z,5.90
2019-01-14T19:17:40.058Z,5.90
2019-01-14T19:21:58.281Z,5.90
2019-01-14T19:26:16.495Z,5.90
2019-01-14T19:30:34.823Z,5.90
2019-01-14T19:34:53.065Z,5.90
2019-01-14T19:39:12.444Z,5.90
2019-01-14T19:43:30.603Z,5.90
2019-01-14T19:47:49.248Z,5.90
2019-01-14T19:52:07.520Z,5.90
2019-01-14T19:56:26.186Z,5.80
2019-01-14T20:00:46.229Z,5.80
2019-01-14T20:05:05.770Z,5.80
2019-01-14T20:09:24.815Z,5.70
2019-01-14T20:13:43.849Z,5.70
2019-01-14T20:18:02.795Z,5.60
2019-01-14T20:22:25.210Z,5.60
2019-01-14T20:26:46.276Z,5.60
2019-01-14T20:31:08.370Z,5.60
2019-01-14T20:35:27.431Z,5.60
2019-01-14T20:39:47.705Z,5.60
2019-01-14T20:44:06.104Z,5.60
2019-01-14T20:48:24.621Z,5.60
2019-01-14T20:52:43.219Z,5.60
2019-01-14T20:57:02.720Z,5.60
2019-01-14T21:01:23.117Z,5.60
2019-01-14T21:05:43.580Z,5.60
2019-01-14T21:10:04.488Z,5.60
2019-01-14T21:14:24.091Z,5.60
2019-01-14T21:18:46.058Z,5.70
2019-01-14T21:23:05.182Z,5.70
2019-01-14T21:27:23.290Z,5.70
2019-01-14T21:31:41.573Z,5.70
2019-01-14T21:35:59.896Z,5.70
2019-01-14T21:40:19.106Z,5.70
2019-01-14T21:44:37.628Z,5.70
2019-01-14T21:49:08.968Z,5.70
2019-01-14T21:53:32.242Z,5.70
2019-01-14T21:57:51.833Z,5.70
2019-01-14T22:02:12.074Z,5.60
2019-01-14T22:06:32.436Z,5.60
2019-01-14T22:10:51.392Z,5.60
2019-01-14T22:15:10.831Z,5.50
2019-01-14T22:19:30.095Z,5.50
2019-01-14T22:23:50.635Z,5.50
2019-01-14T22:28:10.689Z,5.50
2019-01-14T22:32:29.802Z,5.50
2019-01-14T22:36:50.095Z,5.50
2019-01-14T22:41:09.803Z,5.50
2019-01-14T22:45:29.968Z,5.40
2019-01-14T22:49:49.464Z,5.40
2019-01-14T22:54:09.384Z,5.30
2019-01-14T22:58:27.635Z,5.30
2019-01-14T23:02:45.607Z,5.20
2019-01-14T23:07:03.807Z,5.20
2019-01-14T23:11:22.048Z,5.20
2019-01-14T23:15:40.443Z,5.20
2019-01-14T23:19:59.195Z,5.20
2019-01-14T23:24:17.412Z,5.20
2019-01-14T23:28:35.599Z,5.20
2019-01-14T23:32:53.936Z,5.30
2019-01-14T23:37:12.178Z,5.20
2019-01-14T23:41:30.685Z,5.20
2019-01-14T23:45:48.828Z,5.20
2019-01-14T23:50:08.842Z,5.20
2019-01-14T23:54:27.085Z,5.20
2019-01-14T23:58:45.202Z,5.20
